createdAt,value
2022-08-24T00:03:55.319Z,22.50
2022-08-24T00:08:00.190Z,22.40
2022-08-24T00:12:03.308Z,22.30
2022-08-24T00:16:07.869Z,22.20
2022-08-24T00:20:12.173Z,22.20
2022-08-24T00:24:15.026Z,22.10
2022-08-24T00:28:17.909Z,22.10
2022-08-24T00:32:22.186Z,22.00
2022-08-24T00:36:25.073Z,21.90
2022-08-24T00:40:29.608Z,21.90
2022-08-24T00:44:32.488Z,21.80
2022-08-24T00:48:40.078Z,21.70
2022-08-24T00:52:44.600Z,21.70
2022-08-24T00:56:49.709Z,21.60
2022-08-24T01:00:55.894Z,21.60
2022-08-24T01:05:00.975Z,21.50
2022-08-24T01:09:04.131Z,21.50
2022-08-24T01:13:11.610Z,21.40
2022-08-24T01:17:35.087Z,21.40
2022-08-24T01:21:46.564Z,21.30
2022-08-24T01:25:50.956Z,21.30
2022-08-24T01:29:54.702Z,21.20
2022-08-24T01:33:58.018Z,21.10
2022-08-24T01:38:03.456Z,21.10
2022-08-24T01:42:08.355Z,21.10
2022-08-24T01:46:11.444Z,21.00
2022-08-24T01:50:14.448Z,20.90
2022-08-24T01:54:17.741Z,20.90
2022-08-24T01:58:21.955Z,20.90
2022-08-24T02:02:26.765Z,20.80
2022-08-24T02:06:29.599Z,20.80
2022-08-24T02:10:32.739Z,20.80
2022-08-24T02:14:37.853Z,20.70
2022-08-24T02:18:41.209Z,20.70
2022-08-24T02:22:44.229Z,20.60
2022-08-24T02:26:47.068Z,20.50
2022-08-24T02:30:51.315Z,20.50
2022-08-24T02:34:54.727Z,20.50
2022-08-24T02:38:57.906Z,20.50
2022-08-24T02:43:01.002Z,20.50
2022-08-24T02:47:05.383Z,20.50
2022-08-24T02:51:08.796Z,20.40
2022-08-24T02:55:13.265Z,20.40
2022-08-24T02:59:16.827Z,20.40
2022-08-24T03:03:21.003Z,20.40
2022-08-24T03:07:23.825Z,20.30
2022-08-24T03:15:31.268Z,20.30
2022-08-24T03:19:35.557Z,20.20
2022-08-24T03:23:38.646Z,20.20
2022-08-24T03:27:41.506Z,20.10
2022-08-24T03:31:44.440Z,20.10
2022-08-24T03:35:49.103Z,20.00
2022-08-24T03:39:52.134Z,20.00
2022-08-24T03:43:56.492Z,19.90
2022-08-24T03:47:59.449Z,19.90
2022-08-24T03:52:03.868Z,19.90
2022-08-24T03:56:08.039Z,19.80
2022-08-24T04:00:12.383Z,19.80
2022-08-24T04:04:15.409Z,19.80
2022-08-24T04:08:21.162Z,19.70
2022-08-24T04:12:24.218Z,19.70
2022-08-24T04:16:27.911Z,19.60
2022-08-24T04:20:30.880Z,19.60
2022-08-24T04:24:35.067Z,19.50
2022-08-24T04:28:37.960Z,19.50
2022-08-24T04:32:40.782Z,19.50
2022-08-24T04:36:45.004Z,19.50
2022-08-24T04:40:49.610Z,19.50
2022-08-24T04:44:52.699Z,19.50
2022-08-24T04:48:55.862Z,19.40
2022-08-24T04:52:58.690Z,19.40
2022-08-24T04:57:03.387Z,19.30
2022-08-24T05:01:08.082Z,19.30
2022-08-24T05:05:11.510Z,19.30
2022-08-24T05:09:14.378Z,19.30
2022-08-24T05:13:20.367Z,19.40
2022-08-24T05:17:23.232Z,19.50
2022-08-24T05:21:26.390Z,19.50
2022-08-24T05:25:29.299Z,19.50
2022-08-24T05:29:34.823Z,19.60
2022-08-24T05:33:37.786Z,19.70
2022-08-24T05:41:59.879Z,19.80
2022-08-24T05:46:04.142Z,20.00
2022-08-24T05:50:07.947Z,20.00
2022-08-24T05:54:11.468Z,20.10
2022-08-24T05:58:15.255Z,20.20
2022-08-24T06:02:27.421Z,20.30
2022-08-24T06:06:31.007Z,20.40
2022-08-24T06:10:36.728Z,20.50
2022-08-24T06:14:39.916Z,20.60
2022-08-24T06:18:45.106Z,20.80
2022-08-24T06:22:48.091Z,20.90
2022-08-24T06:27:08.433Z,21.00
2022-08-24T06:31:11.461Z,21.10
2022-08-24T06:35:15.633Z,21.20
2022-08-24T06:39:20.110Z,21.30
2022-08-24T06:43:24.502Z,21.40
2022-08-24T06:47:27.410Z,21.50
2022-08-24T06:51:32.468Z,21.60
2022-08-24T06:55:35.677Z,21.80
2022-08-24T06:59:38.591Z,21.90
2022-08-24T07:03:41.603Z,22.10
2022-08-24T07:07:45.781Z,22.30
2022-08-24T07:11:49.110Z,22.40
2022-08-24T07:15:52.792Z,22.60
2022-08-24T07:19:55.662Z,22.80
2022-08-24T07:24:01.183Z,22.90
2022-08-24T07:28:09.389Z,23.10
2022-08-24T07:32:12.949Z,23.20
2022-08-24T07:36:22.762Z,23.50
2022-08-24T07:40:28.114Z,23.60
2022-08-24T07:44:32.037Z,23.90
2022-08-24T07:48:34.895Z,24.30
2022-08-24T07:52:37.770Z,24.40
2022-08-24T07:56:41.942Z,24.60
2022-08-24T08:00:47.266Z,25.00
2022-08-24T08:04:50.055Z,25.10
2022-08-24T08:08:52.859Z,25.40
2022-08-24T08:12:57.010Z,25.90
2022-08-24T08:17:00.038Z,25.90
2022-08-24T08:21:03.685Z,26.30
2022-08-24T08:25:08.153Z,26.50
2022-08-24T08:29:13.405Z,26.90
2022-08-24T08:33:16.322Z,26.90
2022-08-24T08:37:19.379Z,27.10
2022-08-24T08:41:37.102Z,27.30
2022-08-24T08:45:55.523Z,27.50
2022-08-24T08:50:07.169Z,27.70
2022-08-24T08:54:14.647Z,28.20
2022-08-24T08:58:23.722Z,28.20
2022-08-24T09:02:38.856Z,28.50
2022-08-24T09:07:00.311Z,28.80
2022-08-24T09:11:07.705Z,29.00
2022-08-24T09:15:30.137Z,29.30
2022-08-24T09:19:45.302Z,29.70
2022-08-24T09:23:51.325Z,30.00
2022-08-24T09:28:01.885Z,30.30
2022-08-24T09:32:23.716Z,30.50
2022-08-24T09:36:34.336Z,30.70
2022-08-24T09:40:39.579Z,30.80
2022-08-24T09:44:57.095Z,31.00
2022-08-24T09:49:10.092Z,31.10
2022-08-24T09:53:49.027Z,31.30
2022-08-24T09:58:04.758Z,31.60
2022-08-24T10:02:22.871Z,31.90
2022-08-24T10:06:29.782Z,32.10
2022-08-24T10:10:37.555Z,32.40
2022-08-24T10:14:46.515Z,32.70
2022-08-24T10:18:57.155Z,33.00
2022-08-24T10:23:07.971Z,33.20
2022-08-24T10:27:21.385Z,33.50
2022-08-24T10:31:28.387Z,33.80
2022-08-24T10:35:34.671Z,34.00
2022-08-24T10:39:53.765Z,34.30
2022-08-24T10:44:04.375Z,34.50
2022-08-24T10:48:29.086Z,34.70
2022-08-24T10:52:48.845Z,35.00
2022-08-24T10:56:57.424Z,35.20
2022-08-24T11:01:13.662Z,35.30
2022-08-24T11:05:28.932Z,35.50
2022-08-24T11:09:44.253Z,35.70
2022-08-24T11:13:51.422Z,35.80
2022-08-24T11:17:55.219Z,35.90
2022-08-24T11:22:01.867Z,35.90
2022-08-24T11:26:05.838Z,36.00
2022-08-24T11:30:12.024Z,36.10
2022-08-24T11:34:16.144Z,36.10
2022-08-24T11:38:21.488Z,36.20
2022-08-24T11:42:29.903Z,36.30
2022-08-24T11:46:35.629Z,36.30
2022-08-24T11:50:41.743Z,36.40
2022-08-24T11:54:47.948Z,36.50
2022-08-24T11:58:55.252Z,36.70
2022-08-24T12:03:02.626Z,36.90
2022-08-24T12:07:12.617Z,37.00
2022-08-24T12:11:20.179Z,37.00
2022-08-24T12:15:28.730Z,37.10
2022-08-24T12:19:34.188Z,37.10
2022-08-24T12:23:39.765Z,37.10
2022-08-24T12:27:43.974Z,37.10
2022-08-24T12:31:50.492Z,37.10
2022-08-24T12:35:56.011Z,37.20
2022-08-24T12:40:01.300Z,37.30
2022-08-24T12:44:10.142Z,37.40
2022-08-24T12:48:15.997Z,37.50
2022-08-24T12:52:39.890Z,37.60
2022-08-24T12:56:51.798Z,37.80
2022-08-24T13:00:56.738Z,37.80
2022-08-24T13:05:01.567Z,37.90
2022-08-24T13:09:06.286Z,37.80
2022-08-24T13:13:12.238Z,37.80
2022-08-24T13:17:19.035Z,37.70
2022-08-24T13:21:39.632Z,37.60
2022-08-24T13:25:44.828Z,37.60
2022-08-24T13:29:51.007Z,37.50
2022-08-24T13:33:57.466Z,37.20
2022-08-24T13:38:15.181Z,37.00
2022-08-24T13:42:39.617Z,36.80
2022-08-24T13:46:49.142Z,36.70
2022-08-24T13:51:06.436Z,36.60
2022-08-24T13:55:28.036Z,36.40
2022-08-24T13:59:39.780Z,36.30
2022-08-24T14:03:52.741Z,36.10
2022-08-24T14:08:05.648Z,36.00
2022-08-24T14:12:25.068Z,35.80
2022-08-24T14:16:54.008Z,35.70
2022-08-24T14:21:04.287Z,35.60
2022-08-24T14:25:18.228Z,35.40
2022-08-24T14:29:42.175Z,35.40
2022-08-24T14:33:50.518Z,35.40
2022-08-24T14:38:00.306Z,35.50
2022-08-24T14:42:14.099Z,35.60
2022-08-24T14:46:20.300Z,35.80
2022-08-24T14:50:25.312Z,35.90
2022-08-24T14:54:33.156Z,36.00
2022-08-24T14:58:42.194Z,36.20
2022-08-24T15:03:02.749Z,36.20
2022-08-24T15:07:22.769Z,36.30
2022-08-24T15:11:27.760Z,36.30
2022-08-24T15:15:34.332Z,36.40
2022-08-24T15:19:45.459Z,36.40
2022-08-24T15:23:53.658Z,36.50
2022-08-24T15:27:57.642Z,36.40
2022-08-24T15:32:03.783Z,36.60
2022-08-24T15:36:09.028Z,36.60
2022-08-24T15:40:17.467Z,36.70
2022-08-24T15:44:24.536Z,36.90
2022-08-24T15:48:30.075Z,37.10
2022-08-24T15:52:55.123Z,37.30
2022-08-24T15:56:59.541Z,37.60
2022-08-24T16:01:36.708Z,37.70
2022-08-24T16:05:40.947Z,38.30
2022-08-24T16:09:44.131Z,38.20
2022-08-24T16:13:46.939Z,38.20
2022-08-24T16:17:51.671Z,38.30
2022-08-24T16:21:58.507Z,38.40
2022-08-24T16:26:20.150Z,38.40
2022-08-24T16:30:25.404Z,38.30
2022-08-24T16:34:29.696Z,38.30
2022-08-24T16:38:34.514Z,38.10
2022-08-24T16:42:37.818Z,38.00
2022-08-24T16:46:40.902Z,37.80
2022-08-24T16:50:46.224Z,37.70
2022-08-24T16:54:53.474Z,37.50
2022-08-24T16:58:56.486Z,37.30
2022-08-24T17:02:59.597Z,37.10
2022-08-24T17:07:03.172Z,34.10
2022-08-24T17:11:08.577Z,36.40
2022-08-24T17:31:29.074Z,34.90
2022-08-24T17:35:32.016Z,34.80
2022-08-24T17:39:34.921Z,34.40
2022-08-24T17:43:37.768Z,34.10
2022-08-24T17:47:43.313Z,33.80
2022-08-24T17:51:46.153Z,33.60
2022-08-24T17:55:49.046Z,33.20
2022-08-24T17:59:52.895Z,33.00
2022-08-24T18:03:57.175Z,32.70
2022-08-24T18:08:00.838Z,32.50
2022-08-24T18:12:05.386Z,32.30
2022-08-24T18:16:11.052Z,32.10
2022-08-24T18:20:16.632Z,31.80
2022-08-24T18:24:19.501Z,31.60
2022-08-24T18:28:23.903Z,31.40
2022-08-24T18:32:31.022Z,31.20
2022-08-24T18:36:36.074Z,31.00
2022-08-24T18:40:39.664Z,30.90
2022-08-24T18:44:42.699Z,30.70
2022-08-24T18:48:45.536Z,30.50
2022-08-24T18:52:49.896Z,30.30
2022-08-24T18:56:52.965Z,30.10
2022-08-24T19:00:56.175Z,30.00
2022-08-24T19:04:59.970Z,29.80
2022-08-24T19:09:04.359Z,29.60
2022-08-24T19:13:09.032Z,29.50
2022-08-24T19:17:11.927Z,29.30
2022-08-24T19:21:14.799Z,29.20
2022-08-24T19:25:20.813Z,29.10
2022-08-24T19:29:39.158Z,28.90
2022-08-24T19:33:49.833Z,28.80
2022-08-24T19:37:52.999Z,28.60
2022-08-24T19:41:57.695Z,28.50
2022-08-24T19:46:04.064Z,28.40
2022-08-24T19:50:08.321Z,28.20
2022-08-24T19:54:11.241Z,28.10
2022-08-24T19:58:23.752Z,27.90
2022-08-24T20:02:26.756Z,27.80
2022-08-24T20:06:30.474Z,27.70
2022-08-24T20:10:33.935Z,27.50
2022-08-24T20:14:38.139Z,27.50
2022-08-24T20:18:41.058Z,27.30
2022-08-24T20:22:43.954Z,27.20
2022-08-24T20:26:47.283Z,27.20
2022-08-24T20:30:51.458Z,27.10
2022-08-24T20:34:54.432Z,27.00
2022-08-24T20:38:58.264Z,27.00
2022-08-24T20:43:01.126Z,26.90
2022-08-24T20:47:05.725Z,26.80
2022-08-24T20:51:08.559Z,26.80
2022-08-24T20:55:11.613Z,26.80
2022-08-24T20:59:15.860Z,26.80
2022-08-24T21:03:20.103Z,26.70
2022-08-24T21:07:23.139Z,26.70
2022-08-24T21:11:25.979Z,26.60
2022-08-24T21:15:29.009Z,26.60
2022-08-24T21:19:34.293Z,26.50
2022-08-24T21:23:37.415Z,26.50
2022-08-24T21:27:41.703Z,26.40
2022-08-24T21:32:04.815Z,26.30
2022-08-24T21:36:09.721Z,26.30
2022-08-24T21:40:12.818Z,26.20
2022-08-24T21:44:16.849Z,26.10
2022-08-24T21:48:19.905Z,26.10
2022-08-24T21:52:24.136Z,26.00
2022-08-24T21:56:28.474Z,26.00
2022-08-24T22:00:31.465Z,25.90
2022-08-24T22:04:34.415Z,25.80
2022-08-24T22:08:38.836Z,25.80
2022-08-24T22:12:43.369Z,25.80
2022-08-24T22:16:46.462Z,25.70
2022-08-24T22:20:49.304Z,25.70
2022-08-24T22:24:53.490Z,25.60
2022-08-24T22:28:56.906Z,25.60
2022-08-24T22:33:00.286Z,25.50
2022-08-24T22:37:03.598Z,25.40
2022-08-24T22:41:07.847Z,25.30
2022-08-24T22:45:12.152Z,25.30
2022-08-24T22:49:15.006Z,25.20
2022-08-24T22:53:17.832Z,25.10
2022-08-24T22:57:21.971Z,25.10
2022-08-24T23:01:27.438Z,25.00
2022-08-24T23:05:30.312Z,25.00
2022-08-24T23:09:40.471Z,24.80
2022-08-24T23:13:49.839Z,24.80
2022-08-24T23:17:52.719Z,24.70
2022-08-24T23:21:54.640Z,24.60
2022-08-24T23:25:57.418Z,24.50
2022-08-24T23:30:01.623Z,24.40
2022-08-24T23:34:05.062Z,24.30
2022-08-24T23:38:07.871Z,24.20
2022-08-24T23:42:10.742Z,24.10
2022-08-24T23:46:15.099Z,24.00
2022-08-24T23:50:18.749Z,23.90
2022-08-24T23:54:22.191Z,23.80
2022-08-24T23:58:25.007Z,23.60
